AirNav   Jet Aviation Boston
 
 929 users online  

H04 Vinita Municipal Airport
Vinita, Oklahoma, USA

GOING TO VINITA?


FAA INFORMATION EFFECTIVE 29 MARCH 2018

Location

FAA Identifier: H04
Lat/Long: 36-36-52.6186N / 095-09-06.1012W
36-36.876977N / 095-09.101687W
36.6146163 / -95.1516948
(estimated)
Elevation: 695.2 ft. / 212 m (estimated)
Variation: 05E (1985)
From city: 2 miles SE of VINITA, OK
Time zone: UTC -5 (UTC -6 during Standard Time)
Zip code: 74301

Airport Operations

Airport use: Open to the public
Activation date: 01/1965
Control tower: no
ARTCC: KANSAS CITY CENTER
FSS: MC ALESTER FLIGHT SERVICE STATION
NOTAMs facility: MLC (NOTAM-D service available)
Attendance: UNATNDD
Pattern altitude: 1495.2 ft. MSL
Wind indicator: lighted
Segmented circle: yes
Lights: ACTVT MIRL RY 17/35 - 122.8.
Beacon: white-green (lighted land airport)
Operates sunset to sunrise.

Airport Communications

CTAF: 122.9
WX AWOS-3 at GMJ (20 nm E): 119.025 (918-786-8350)

Nearby radio navigation aids

VOR radial/distance  VOR name  Freq  Var
OSWr168/32.7OSWEGO VOR/DME117.6008E
EOSr241/37.0NEOSHO VOR/DME117.3007E
TULr043/39.7TULSA VORTAC114.4008E

 
NDB name  Hdg/Dist  Freq  Var  ID
COFFEYVILLE140/35.121205ECFV -.-. ..-. ...-

Airport Services

Parking: tiedowns
Airframe service: NONE
Powerplant service: NONE
Bottled oxygen: NONE
Bulk oxygen: NONE

Runway Information

Runway 17/35

Dimensions: 4209 x 60 ft. / 1283 x 18 m
Surface: asphalt/concrete, in fair condition
Runway edge lights: medium intensity
Gradient: N.
RUNWAY 17  RUNWAY 35
Latitude: 36-37.223772N36-36.530182N
Longitude: 095-09.102705W095-09.100667W
Elevation: 695.2 ft.678.6 ft.
Gradient: 0.5%0.4% UP
Traffic pattern: leftleft
Runway heading: 174 magnetic, 179 true354 magnetic, 359 true
Displaced threshold: 210 ft.no
Markings: basic, in good conditionbasic, in good condition
Touchdown point: yes, no lightsyes, no lights
Obstructions: 42 ft. trees, 1020 ft. from runway, 205 ft. right of centerline, 19:1 slope to clearnone

Airport Ownership and Management from official FAA records

Ownership: Publicly-owned
Owner: CITY OF VINITA
104 E. ILLINOIS, PO BOX 329
VINITA, OK 74301
Phone 918-256-6468
Manager: JIM WHISENANT
747 E. AIRPORT RD., 104 E. ILLINOIS
VINITA, OK 74301
Phone 918-256-6468
DIRECTOR OF OPERATIONS. ARPT ATTENDANT: TERRY WILLIAMS 918-397-0193.

Airport Operational Statistics

Aircraft based on the field: 21
Single engine airplanes: 10
Ultralights: 11
    
Aircraft operations: avg 29/day *
50% transient general aviation
50% local general aviation
* for 12-month period ending 15 April 2016

Additional Remarks

ULTRALIGHT ACTVTY ON & INVOF ARPT.
INTERSTATE HWY 425 FT NORTH OF RY 17 END.

Instrument Procedures

There are no published instrument procedures at H04.

Some nearby airports with instrument procedures:

1K8 - South Grand Lake Regional Airport (8 nm SE)
KGMJ - Grove Municipal Airport (20 nm E)
KMIO - Miami Regional Airport (22 nm NE)
H71 - Mid-America Industrial Airport (25 nm S)
KGCM - Claremore Regional Airport (25 nm SW)
 
Loc | Ops | Rwys | IFR | FBO | Links
Com | Nav | Svcs | Stats | Notes

AirNav Hotels Sweepstakes
 
Area around H04 (Vinita Municipal Airport)
 
Road maps at: MapQuest Bing Google
 
Aerial photo
WARNING: Photo may not be current or correct
Aerial photo of H04 (Vinita Municipal Airport)
Photo by Dean Ritter, Aerial Oklahoma

Do you have a better or more recent aerial photo of Vinita Municipal Airport that you would like to share? If so, please send us your photo.

 
Sectional chart

 
Airport distance calculator
Flying to Vinita Municipal Airport? Find the distance to fly.

From to H04

Sunrise and sunset
Times for 22-Apr-2018
 Local
(UTC-5)
 Zulu
(UTC)
Morning civil twilight06:1211:12
Sunrise06:3911:39
Sunset20:0001:00
Evening civil twilight20:2701:27

Current date and time
Zulu (UTC)  22-Apr-2018 14:11:07
Local (UTC-5)  22-Apr-2018 09:11:07
 
METAR
KGMJ 
20nm E 
221355Z AUTO 00000KT 10SM -VCTSDZ OVC009 11/10 A2999 RMK AO2 LTG DSNT SE
KGCM 
25nm SW 
221355Z AUTO 33006KT 1 3/4SM BR OVC004 08/08 A3002 RMK AO2 LTG LTG DSNT E
KCFV 
34nm NW 
221352Z AUTO 33008KT 10SM OVC014 10/09 A3003 RMK AO2 SLP169 T01000089 $
KEOS 
38nm E 
SuperAWOS
221335Z AUTO 03004KT 10SM 09/09 A2996
TAF
KBVO 
43nm W 
221140Z 2212/2312 VRB03KT P6SM VCSH OVC018 TEMPO 2212/2216 4SM -RA BR OVC008 FM221600 34005KT P6SM SCT015 OVC030 FM221800 35010G16KT P6SM SCT020 OVC030 FM230300 36005KT P6SM BKN030
KTUL 
43nm SW 
221140Z 2212/2312 33009KT P6SM VCSH OVC008 TEMPO 2212/2216 4SM -RA BR OVC006 FM221800 34011G16KT P6SM SCT020 OVC030 FM230400 36005KT P6SM BKN030
KJLN 
45nm NE 
221120Z 2212/2312 04007KT 6SM -RA BR BKN030 TEMPO 2212/2216 3SM -RA BR OVC020 FM221800 02009KT 4SM -SHRA OVC010 FM230000 36008KT P6SM OVC010
KXNA 
46nm SE 
221140Z 2212/2312 VRB05KT P6SM VCSH SCT015 OVC050 TEMPO 2212/2216 4SM -RA BR OVC008 FM221800 32005KT P6SM SCT005 OVC012 FM222000 34008KT P6SM OVC020 FM230500 35005KT P6SM BKN030
NOTAMs
Click for the latest NOTAMs
NOTAMs are issued by the DoD/FAA and will open in a separate window not controlled by AirNav.

 

 
 

Where to Eat: Catering, Restaurants, Food shops

  
 Business Name 
 
 Contact 
 
 Services / Description 
 
Distance
 
Comments
  
McDonald's 918-256-5571
no information available

If you are affiliated with McDonald's and would like to show here your services, contact info, web link, logo, and more, click here
0.1 miles  
   write
 

Would you like to see your business listed on this page?

 If your business provides an interesting product or service to pilots, flight crews, aircraft, or users of the Vinita Municipal Airport, you should consider listing it here.  To start the listing process, click on the button below
 
Add a business
 

Other Pages about Vinita Municipal Airport

Update a link
 
Copyright © AirNav, LLC. All rights reserved. Privacy Policy  Contact